createdAt,value
2022-08-26T00:03:51.632Z,21.58
2022-08-26T00:08:52.417Z,21.54
2022-08-26T00:13:53.115Z,21.53
2022-08-26T00:18:54.011Z,21.53
2022-08-26T00:23:54.748Z,21.54
2022-08-26T00:28:55.592Z,21.54
2022-08-26T00:33:56.322Z,21.44
2022-08-26T00:38:57.054Z,21.40
2022-08-26T00:43:57.784Z,21.35
2022-08-26T00:48:58.548Z,21.32
2022-08-26T00:53:59.299Z,21.24
2022-08-26T00:59:00.057Z,21.21
2022-08-26T01:04:00.796Z,21.19
2022-08-26T01:09:01.513Z,21.27
2022-08-26T01:14:02.209Z,21.24
2022-08-26T01:19:03.019Z,21.17
2022-08-26T01:24:03.585Z,21.09
2022-08-26T01:29:04.341Z,21.10
2022-08-26T01:34:12.036Z,21.10
2022-08-26T01:39:07.348Z,21.14
2022-08-26T01:44:06.355Z,21.13
2022-08-26T01:49:06.886Z,21.12
2022-08-26T01:54:07.456Z,21.06
2022-08-26T01:59:08.263Z,21.06
2022-08-26T02:04:08.934Z,20.99
2022-08-26T02:09:09.663Z,21.01
2022-08-26T02:14:10.493Z,20.97
2022-08-26T02:19:11.701Z,20.94
2022-08-26T02:24:12.883Z,20.94
2022-08-26T02:29:12.611Z,20.91
2022-08-26T02:34:13.549Z,20.88
2022-08-26T02:39:19.539Z,20.87
2022-08-26T02:44:16.014Z,20.73
2022-08-26T02:49:15.677Z,20.72
2022-08-26T02:54:16.213Z,20.69
2022-08-26T02:59:17.124Z,20.67
2022-08-26T03:04:17.885Z,20.69
2022-08-26T03:09:18.985Z,20.67
2022-08-26T03:14:19.172Z,20.66
2022-08-26T03:19:20.023Z,20.66
2022-08-26T03:24:20.836Z,20.69
2022-08-26T03:29:21.684Z,20.72
2022-08-26T03:34:22.430Z,20.79
2022-08-26T03:39:23.125Z,20.87
2022-08-26T03:44:23.847Z,20.82
2022-08-26T03:49:24.818Z,20.85
2022-08-26T03:54:25.559Z,20.80
2022-08-26T03:59:26.286Z,20.77
2022-08-26T04:04:26.886Z,20.73
2022-08-26T04:09:27.571Z,20.72
2022-08-26T04:14:28.280Z,20.74
2022-08-26T04:19:28.978Z,20.70
2022-08-26T04:24:29.779Z,20.69
2022-08-26T04:29:30.534Z,20.73
2022-08-26T04:34:31.257Z,20.84
2022-08-26T04:39:31.736Z,20.82
2022-08-26T04:44:32.400Z,20.74
2022-08-26T04:49:35.430Z,20.74
2022-08-26T04:54:33.941Z,20.79
2022-08-26T04:59:38.929Z,20.77
2022-08-26T05:04:35.644Z,20.95
2022-08-26T05:09:36.187Z,21.24
2022-08-26T05:14:36.907Z,21.43
2022-08-26T05:19:37.610Z,21.32
2022-08-26T05:24:39.216Z,21.28
2022-08-26T05:29:38.730Z,21.31
2022-08-26T05:34:39.403Z,21.43
2022-08-26T05:39:41.287Z,21.62
2022-08-26T05:44:53.927Z,21.77
2022-08-26T05:49:51.659Z,21.98
2022-08-26T05:54:42.891Z,22.27
2022-08-26T05:59:42.629Z,22.39
2022-08-26T06:04:43.152Z,22.42
2022-08-26T06:09:43.831Z,22.47
2022-08-26T06:14:44.641Z,22.60
2022-08-26T06:19:45.294Z,22.82
2022-08-26T06:24:46.199Z,22.98
2022-08-26T06:29:46.916Z,23.10
2022-08-26T06:34:47.650Z,23.22
2022-08-26T06:39:48.339Z,23.43
2022-08-26T06:44:48.896Z,23.53
2022-08-26T06:49:49.568Z,23.60
2022-08-26T06:54:50.216Z,23.80
2022-08-26T06:59:51.222Z,24.00
2022-08-26T07:04:51.611Z,24.13
2022-08-26T07:09:52.450Z,24.30
2022-08-26T07:14:52.922Z,24.30
2022-08-26T07:19:53.605Z,24.49
2022-08-26T07:24:54.217Z,24.55
2022-08-26T07:29:55.567Z,24.60
2022-08-26T07:35:02.688Z,24.80
2022-08-26T07:39:56.368Z,24.99
2022-08-26T07:44:57.135Z,25.28
2022-08-26T07:49:57.870Z,25.32
2022-08-26T07:54:58.525Z,25.50
2022-08-26T07:59:59.160Z,25.65
2022-08-26T08:04:59.975Z,25.82
2022-08-26T08:10:00.604Z,26.09
2022-08-26T08:15:01.276Z,26.26
2022-08-26T08:20:01.933Z,26.45
2022-08-26T08:25:02.988Z,26.57
2022-08-26T08:30:04.178Z,26.72
2022-08-26T08:35:10.820Z,26.91
2022-08-26T08:40:05.986Z,26.99
2022-08-26T08:45:05.172Z,26.87
2022-08-26T08:50:05.808Z,27.00
2022-08-26T08:55:11.077Z,26.63
2022-08-26T09:00:08.092Z,26.52
2022-08-26T09:05:07.851Z,26.63
2022-08-26T09:10:08.544Z,26.80
2022-08-26T09:15:09.398Z,27.28
2022-08-26T09:20:10.202Z,27.67
2022-08-26T09:25:11.048Z,27.78
2022-08-26T09:30:11.652Z,27.70
2022-08-26T09:35:12.012Z,27.85
2022-08-26T09:40:12.733Z,28.27
2022-08-26T09:45:13.380Z,28.31
2022-08-26T09:50:14.035Z,28.56
2022-08-26T09:55:15.569Z,28.78
2022-08-26T10:00:15.389Z,28.64
2022-08-26T10:05:16.033Z,28.76
2022-08-26T10:10:16.666Z,29.09
2022-08-26T10:15:17.358Z,29.41
2022-08-26T10:20:23.466Z,29.28
2022-08-26T10:25:19.609Z,29.24
2022-08-26T10:30:19.331Z,29.31
2022-08-26T10:35:20.213Z,29.18
2022-08-26T10:40:20.795Z,29.30
2022-08-26T10:45:21.338Z,29.83
2022-08-26T10:50:21.960Z,30.07
2022-08-26T10:55:22.571Z,30.13
2022-08-26T11:00:23.291Z,30.27
2022-08-26T11:05:24.168Z,30.00
2022-08-26T11:10:24.793Z,29.80
2022-08-26T11:15:26.603Z,29.51
2022-08-26T11:20:26.354Z,29.11
2022-08-26T11:25:30.795Z,28.98
2022-08-26T11:30:27.729Z,28.88
2022-08-26T11:35:28.365Z,29.00
2022-08-26T11:40:29.190Z,29.11
2022-08-26T11:45:29.967Z,29.06
2022-08-26T11:50:35.389Z,29.06
2022-08-26T11:55:31.513Z,28.92
2022-08-26T12:00:33.864Z,27.36
2022-08-26T12:05:33.179Z,26.17
2022-08-26T12:10:33.988Z,25.54
2022-08-26T12:15:34.841Z,25.02
2022-08-26T12:20:35.362Z,24.83
2022-08-26T12:25:36.243Z,24.45
2022-08-26T12:30:36.804Z,24.09
2022-08-26T12:35:37.531Z,23.88
2022-08-26T12:40:38.160Z,23.79
2022-08-26T12:45:38.907Z,23.53
2022-08-26T12:50:39.736Z,23.25
2022-08-26T12:55:40.459Z,23.22
2022-08-26T13:00:41.313Z,22.83
2022-08-26T13:05:42.104Z,22.51
2022-08-26T13:10:42.846Z,22.36
2022-08-26T13:15:43.563Z,22.12
2022-08-26T13:20:44.350Z,22.20
2022-08-26T13:25:44.984Z,22.12
2022-08-26T13:30:45.814Z,22.07
2022-08-26T13:35:53.708Z,22.05
2022-08-26T13:40:47.472Z,22.02
2022-08-26T13:45:48.196Z,21.83
2022-08-26T13:50:48.855Z,21.44
2022-08-26T13:55:49.557Z,21.40
2022-08-26T14:00:50.309Z,21.40
2022-08-26T14:05:51.016Z,21.31
2022-08-26T14:10:51.651Z,21.28
2022-08-26T14:15:52.402Z,21.19
2022-08-26T14:20:53.090Z,21.27
2022-08-26T14:25:53.823Z,21.32
2022-08-26T14:30:54.605Z,21.47
2022-08-26T14:35:55.338Z,21.53
2022-08-26T14:40:56.177Z,21.59
2022-08-26T14:45:56.966Z,21.68
2022-08-26T14:50:57.591Z,21.74
2022-08-26T14:55:58.413Z,21.77
2022-08-26T15:00:59.061Z,21.82
2022-08-26T15:06:00.604Z,21.86
2022-08-26T15:11:00.351Z,21.82
2022-08-26T15:16:01.128Z,21.65
2022-08-26T15:21:01.826Z,21.32
2022-08-26T15:26:02.478Z,21.07
2022-08-26T15:31:03.220Z,20.82
2022-08-26T15:36:03.981Z,20.85
2022-08-26T15:41:04.626Z,20.92
2022-08-26T15:46:05.347Z,20.99
2022-08-26T15:51:06.030Z,20.99
2022-08-26T15:56:06.797Z,21.10
2022-08-26T16:01:07.382Z,21.16
2022-08-26T16:06:08.087Z,20.98
2022-08-26T16:11:08.819Z,20.82
2022-08-26T16:16:09.581Z,20.84
2022-08-26T16:21:13.639Z,20.76
2022-08-26T16:26:11.229Z,20.72
2022-08-26T16:31:11.957Z,20.76
2022-08-26T16:36:12.638Z,20.76
2022-08-26T16:41:13.342Z,20.72
2022-08-26T16:46:13.990Z,20.70
2022-08-26T16:51:14.661Z,20.73
2022-08-26T16:56:15.373Z,20.57
2022-08-26T17:01:16.075Z,20.52
2022-08-26T17:06:16.746Z,20.58
2022-08-26T17:11:17.419Z,20.67
2022-08-26T17:16:18.165Z,20.76
2022-08-26T17:21:18.835Z,20.80
2022-08-26T17:26:19.534Z,20.77
2022-08-26T17:31:20.304Z,20.82
2022-08-26T17:36:20.986Z,20.85
2022-08-26T17:41:21.651Z,20.84
2022-08-26T17:46:22.383Z,20.79
2022-08-26T17:51:23.079Z,20.82
2022-08-26T17:56:23.750Z,20.76
2022-08-26T18:01:24.467Z,20.74
2022-08-26T18:06:25.086Z,20.70
2022-08-26T18:11:25.797Z,20.64
2022-08-26T18:16:26.481Z,20.70
2022-08-26T18:21:27.224Z,20.77
2022-08-26T18:26:27.882Z,20.77
2022-08-26T18:31:28.614Z,20.76
2022-08-26T18:36:29.224Z,20.76
2022-08-26T18:41:29.952Z,20.72
2022-08-26T18:46:30.737Z,20.70
2022-08-26T18:51:31.464Z,20.67
2022-08-26T18:56:32.205Z,20.66
2022-08-26T19:01:33.120Z,20.66
2022-08-26T19:06:33.402Z,20.64
2022-08-26T19:11:38.374Z,20.66
2022-08-26T19:16:35.864Z,20.64
2022-08-26T19:21:35.533Z,20.59
2022-08-26T19:26:36.274Z,20.61
2022-08-26T19:31:37.012Z,20.58
2022-08-26T19:36:38.787Z,20.54
2022-08-26T19:41:38.303Z,20.58
2022-08-26T19:51:39.675Z,20.48
2022-08-26T19:56:40.400Z,20.51
2022-08-26T20:01:41.189Z,20.48
2022-08-26T20:06:41.559Z,20.48
2022-08-26T20:11:42.409Z,20.48
2022-08-26T20:16:50.140Z,20.43
2022-08-26T20:21:43.931Z,20.39
2022-08-26T20:26:44.699Z,20.39
2022-08-26T20:31:45.398Z,20.33
2022-08-26T20:36:46.104Z,20.33
2022-08-26T20:41:46.854Z,20.31
2022-08-26T20:46:47.574Z,20.21
2022-08-26T20:51:48.291Z,20.17
2022-08-26T20:56:49.221Z,20.20
2022-08-26T21:01:50.021Z,20.29
2022-08-26T21:06:52.180Z,20.32
2022-08-26T21:11:52.968Z,20.29
2022-08-26T21:16:51.938Z,20.29
2022-08-26T21:21:52.657Z,20.33
2022-08-26T21:26:53.352Z,20.23
2022-08-26T21:31:54.162Z,20.10
2022-08-26T21:36:54.844Z,20.13
2022-08-26T21:41:55.819Z,20.06
2022-08-26T21:46:56.329Z,20.03
2022-08-26T21:51:56.711Z,20.01
2022-08-26T21:56:57.478Z,20.06
2022-08-26T22:01:58.255Z,20.05
2022-08-26T22:06:58.953Z,20.03
2022-08-26T22:11:59.665Z,20.02
2022-08-26T22:17:00.484Z,20.08
2022-08-26T22:22:01.186Z,20.08
2022-08-26T22:27:01.897Z,20.11
2022-08-26T22:32:02.634Z,20.11
2022-08-26T22:37:03.393Z,20.11
2022-08-26T22:42:04.156Z,20.08
2022-08-26T22:47:04.881Z,20.10
2022-08-26T22:52:05.687Z,20.01
2022-08-26T22:57:06.406Z,19.92
2022-08-26T23:02:07.123Z,19.83
2022-08-26T23:07:07.723Z,19.83
2022-08-26T23:12:08.490Z,19.78
2022-08-26T23:17:09.251Z,19.73
2022-08-26T23:22:10.514Z,19.63
2022-08-26T23:27:10.996Z,19.61
2022-08-26T23:32:11.349Z,19.58
2022-08-26T23:37:12.155Z,19.63
2022-08-26T23:42:12.863Z,19.69
2022-08-26T23:47:13.626Z,19.77
2022-08-26T23:52:14.358Z,19.80
2022-08-26T23:57:15.036Z,19.77
